Terminal Aerodrome Forecast
Issued by NWS Shreveport, LA

Home | Current Version | Previous Version | Text Only | Print | Product List | Glossary On
Versions: 1 2 3 4 5 6 7 8 9 10 11 12 13 14 15 16
000
FTUS44 KSHV 021300 AAA
TAFELD
TAF AMD
KELD 021352Z 0214/0312 03011KT 5SM -DZ BR OVC005
      TEMPO 0214/0218 2SM -RA BR
     FM021800 05008KT 4SM -DZ BR OVC005
     FM030000 06004KT 2SM BR OVC003
     FM030600 13002KT 1/2SM FG OVC001=

USA.gov is the U.S. government's official web portal to all federal, state and local government web resources and services.